createdAt,value
2018-12-03T00:01:32.422Z,-0.43
2018-12-03T00:04:09.366Z,-0.47
2018-12-03T00:06:38.080Z,-0.46
2018-12-03T00:09:09.112Z,-0.44
2018-12-03T00:11:38.108Z,-0.41
2018-12-03T00:14:06.924Z,-0.47
2018-12-03T00:16:35.643Z,-0.50
2018-12-03T00:19:04.478Z,-0.70
2018-12-03T00:21:33.203Z,-0.73
2018-12-03T00:24:01.966Z,-0.72
2018-12-03T00:26:30.706Z,-0.78
2018-12-03T00:28:59.517Z,-0.74
2018-12-03T00:31:28.276Z,-0.71
2018-12-03T00:33:57.272Z,-0.63
2018-12-03T00:36:26.039Z,-0.62
2018-12-03T00:38:54.789Z,-0.65
2018-12-03T00:41:23.527Z,-0.73
2018-12-03T00:43:52.237Z,-0.70
2018-12-03T00:46:20.954Z,-0.83
2018-12-03T00:48:49.624Z,-0.85
2018-12-03T00:51:18.306Z,-0.92
2018-12-03T00:53:46.988Z,-1.00
2018-12-03T00:56:15.672Z,-1.01
2018-12-03T00:58:44.365Z,-0.97
2018-12-03T01:01:13.067Z,-0.95
2018-12-03T01:03:41.815Z,-1.04
2018-12-03T01:06:10.596Z,-1.03
2018-12-03T01:08:39.239Z,-1.08
2018-12-03T01:11:08.018Z,-1.14
2018-12-03T01:13:36.725Z,-1.12
2018-12-03T01:16:05.997Z,-1.17
2018-12-03T01:18:34.688Z,-1.24
2018-12-03T01:21:03.424Z,-1.34
2018-12-03T01:23:32.077Z,-1.39
2018-12-03T01:26:00.690Z,-1.41
2018-12-03T01:28:29.425Z,-1.36
2018-12-03T01:30:58.086Z,-1.44
2018-12-03T01:33:26.767Z,-1.51
2018-12-03T01:35:55.585Z,-1.46
2018-12-03T01:38:24.256Z,-1.62
2018-12-03T01:40:53.029Z,-1.58
2018-12-03T01:43:21.684Z,-1.57
2018-12-03T01:45:50.506Z,-1.53
2018-12-03T01:48:19.200Z,-1.61
2018-12-03T01:50:47.892Z,-1.65
2018-12-03T01:53:16.552Z,-1.60
2018-12-03T01:55:45.508Z,-1.62
2018-12-03T01:58:14.239Z,-1.57
2018-12-03T02:00:42.925Z,-1.58
2018-12-03T02:03:11.664Z,-1.61
2018-12-03T02:05:40.334Z,-1.55
2018-12-03T02:08:09.093Z,-1.60
2018-12-03T02:10:37.777Z,-1.60
2018-12-03T02:13:06.693Z,-1.59
2018-12-03T02:15:35.434Z,-1.67
2018-12-03T02:18:04.146Z,-1.69
2018-12-03T02:20:32.784Z,-1.75
2018-12-03T02:23:01.402Z,-1.75
2018-12-03T02:25:30.090Z,-1.77
2018-12-03T02:27:58.732Z,-1.73
2018-12-03T02:30:27.436Z,-1.78
2018-12-03T02:32:56.084Z,-1.82
2018-12-03T02:35:24.820Z,-1.79
2018-12-03T02:37:53.458Z,-1.86
2018-12-03T02:40:22.132Z,-1.90
2018-12-03T02:42:50.765Z,-1.92
2018-12-03T02:45:19.437Z,-1.90
2018-12-03T02:47:48.116Z,-1.87
2018-12-03T02:50:16.784Z,-1.81
2018-12-03T02:52:45.459Z,-1.92
2018-12-03T02:55:14.688Z,-1.95
2018-12-03T02:57:43.377Z,-1.90
2018-12-03T03:00:17.123Z,-2.08
2018-12-03T03:02:46.081Z,-2.09
2018-12-03T03:05:15.766Z,-2.09
2018-12-03T03:07:44.756Z,-2.13
2018-12-03T03:10:15.414Z,-2.19
2018-12-03T03:12:44.102Z,-2.25
2018-12-03T03:15:13.810Z,-2.31
2018-12-03T03:17:42.488Z,-2.34
2018-12-03T03:20:12.414Z,-2.38
2018-12-03T03:22:41.140Z,-2.32
2018-12-03T03:25:10.703Z,-2.30
2018-12-03T03:27:39.542Z,-2.36
2018-12-03T03:30:11.217Z,-2.33
2018-12-03T03:32:39.947Z,-2.41
2018-12-03T03:35:10.473Z,-2.46
2018-12-03T03:37:39.187Z,-2.56
2018-12-03T03:40:10.398Z,-2.54
2018-12-03T03:42:39.101Z,-2.56
2018-12-03T03:45:14.064Z,-2.50
2018-12-03T03:47:42.751Z,-2.49
2018-12-03T03:50:11.494Z,-2.45
2018-12-03T03:52:40.169Z,-2.36
2018-12-03T03:55:09.807Z,-2.40
2018-12-03T03:57:38.565Z,-2.30
2018-12-03T04:00:11.835Z,-2.25
2018-12-03T04:02:40.648Z,-2.23
2018-12-03T04:05:16.106Z,-2.23
2018-12-03T04:07:45.833Z,-2.16
2018-12-03T04:10:15.316Z,-2.12
2018-12-03T04:12:45.093Z,-2.08
2018-12-03T04:15:14.710Z,-2.11
2018-12-03T04:17:43.424Z,-2.13
2018-12-03T04:20:14.317Z,-2.10
2018-12-03T04:22:43.212Z,-2.07
2018-12-03T04:25:12.370Z,-2.03
2018-12-03T04:27:41.031Z,-1.94
2018-12-03T04:30:15.423Z,-1.97
2018-12-03T04:32:44.110Z,-2.06
2018-12-03T04:35:13.342Z,-1.94
2018-12-03T04:37:42.494Z,-1.89
2018-12-03T04:40:12.228Z,-1.93
2018-12-03T04:42:40.911Z,-1.99
2018-12-03T04:45:11.868Z,-1.90
2018-12-03T04:47:40.512Z,-1.85
2018-12-03T04:50:12.585Z,-1.87
2018-12-03T04:52:41.380Z,-1.85
2018-12-03T04:55:10.558Z,-1.87
2018-12-03T04:57:39.382Z,-1.92
2018-12-03T05:00:12.831Z,-1.95
2018-12-03T05:02:41.629Z,-1.79
2018-12-03T05:05:10.894Z,-1.76
2018-12-03T05:07:39.552Z,-1.69
2018-12-03T05:10:11.708Z,-1.76
2018-12-03T05:12:40.376Z,-1.77
2018-12-03T05:15:11.368Z,-1.71
2018-12-03T05:17:40.313Z,-1.66
2018-12-03T05:20:12.269Z,-1.71
2018-12-03T05:22:40.930Z,-1.73
2018-12-03T05:25:10.695Z,-1.87
2018-12-03T05:27:39.423Z,-1.76
2018-12-03T05:30:11.014Z,-1.73
2018-12-03T05:32:40.155Z,-1.72
2018-12-03T05:35:13.306Z,-1.70
2018-12-03T05:37:42.073Z,-1.65
2018-12-03T05:40:16.657Z,-1.58
2018-12-03T05:42:45.560Z,-1.64
2018-12-03T05:45:14.260Z,-1.72
2018-12-03T05:47:42.955Z,-1.75
2018-12-03T05:50:14.602Z,-1.72
2018-12-03T05:52:43.996Z,-1.74
2018-12-03T05:55:13.346Z,-1.83
2018-12-03T05:57:42.425Z,-1.76
2018-12-03T06:00:16.322Z,-1.74
2018-12-03T06:02:44.987Z,-1.70
2018-12-03T06:05:14.324Z,-1.71
2018-12-03T06:07:43.050Z,-1.75
2018-12-03T06:10:13.914Z,-1.81
2018-12-03T06:12:42.630Z,-1.81
2018-12-03T06:15:12.569Z,-1.90
2018-12-03T06:17:41.303Z,-1.84
2018-12-03T06:20:14.144Z,-1.70
2018-12-03T06:22:42.874Z,-1.67
2018-12-03T06:25:14.899Z,-1.57
2018-12-03T06:27:43.572Z,-1.52
2018-12-03T06:30:14.623Z,-1.79
2018-12-03T06:32:43.309Z,-1.66
2018-12-03T06:35:12.943Z,-1.55
2018-12-03T06:37:41.624Z,-1.61
2018-12-03T06:40:14.294Z,-1.51
2018-12-03T06:42:43.004Z,-1.52
2018-12-03T06:45:14.890Z,-1.51
2018-12-03T06:47:49.823Z,-1.51
2018-12-03T06:50:18.607Z,-1.57
2018-12-03T06:52:47.271Z,-1.50
2018-12-03T06:55:15.937Z,-1.46
2018-12-03T06:57:44.642Z,-1.41
2018-12-03T07:00:14.842Z,-1.39
2018-12-03T07:02:43.908Z,-1.20
2018-12-03T07:05:12.726Z,-1.30
2018-12-03T07:07:42.321Z,-1.53
2018-12-03T07:10:19.121Z,-1.44
2018-12-03T07:12:49.262Z,-1.31
2018-12-03T07:15:19.353Z,-1.17
2018-12-03T07:17:48.351Z,-1.05
2018-12-03T07:20:17.095Z,-1.04
2018-12-03T07:22:45.737Z,-0.97
2018-12-03T07:25:14.465Z,-0.94
2018-12-03T07:27:43.422Z,-0.86
2018-12-03T07:30:22.026Z,-1.07
2018-12-03T07:32:51.308Z,-0.93
2018-12-03T07:35:21.747Z,-1.14
2018-12-03T07:37:51.755Z,-1.17
2018-12-03T07:40:20.485Z,-1.05
2018-12-03T07:42:49.183Z,-1.00
2018-12-03T07:45:20.016Z,-0.85
2018-12-03T07:47:48.810Z,-0.78
2018-12-03T07:50:18.514Z,-0.82
2018-12-03T07:52:47.244Z,-0.79
2018-12-03T07:55:17.320Z,-0.95
2018-12-03T07:57:50.694Z,-0.74
2018-12-03T08:00:21.156Z,-0.56
2018-12-03T08:02:49.866Z,-0.64
2018-12-03T08:05:18.559Z,-0.64
2018-12-03T08:07:47.280Z,-0.77
2018-12-03T08:10:17.629Z,-0.70
2018-12-03T08:12:47.341Z,-1.14
2018-12-03T08:15:17.449Z,-0.78
2018-12-03T08:17:52.035Z,-0.82
2018-12-03T08:20:33.990Z,-0.68
2018-12-03T08:23:05.651Z,-0.55
2018-12-03T08:25:34.457Z,-0.37
2018-12-03T08:28:03.209Z,-0.38
2018-12-03T08:30:31.866Z,-0.21
2018-12-03T08:33:00.603Z,-0.15
2018-12-03T08:35:29.316Z,-0.10
2018-12-03T08:38:03.237Z,-0.18
2018-12-03T08:40:26.731Z,0.03
2018-12-03T08:42:55.870Z,0.01
2018-12-03T08:45:25.624Z,-0.01
2018-12-03T08:47:54.404Z,0.13
2018-12-03T08:50:26.474Z,-0.02
2018-12-03T08:52:56.089Z,0.20
2018-12-03T08:55:34.403Z,0.17
2018-12-03T08:58:03.131Z,0.09
2018-12-03T09:00:31.788Z,0.15
2018-12-03T09:03:03.893Z,0.18
2018-12-03T09:05:38.812Z,0.24
2018-12-03T09:08:09.742Z,0.44
2018-12-03T09:10:38.697Z,0.61
2018-12-03T09:13:14.945Z,0.86
2018-12-03T09:15:43.988Z,0.84
2018-12-03T09:18:12.650Z,1.03
2018-12-03T09:20:41.363Z,0.90
2018-12-03T09:23:10.028Z,1.03
2018-12-03T09:25:38.683Z,1.11
2018-12-03T09:28:07.381Z,1.20
2018-12-03T09:30:36.096Z,1.27
2018-12-03T09:33:04.858Z,1.11
2018-12-03T09:35:33.542Z,1.07
2018-12-03T09:38:02.221Z,1.05
2018-12-03T09:40:31.406Z,1.07
2018-12-03T09:43:00.110Z,1.19
2018-12-03T09:45:29.117Z,1.35
2018-12-03T09:47:57.811Z,1.27
2018-12-03T09:50:28.021Z,1.61
2018-12-03T09:52:57.036Z,1.74
2018-12-03T09:55:28.753Z,1.66
2018-12-03T09:58:10.972Z,1.79
2018-12-03T10:00:39.673Z,1.91
2018-12-03T10:03:10.428Z,1.95
2018-12-03T10:05:47.655Z,2.03
2018-12-03T10:08:16.278Z,2.32
2018-12-03T10:10:53.889Z,2.37
2018-12-03T10:13:22.932Z,2.75
2018-12-03T10:15:51.587Z,2.99
2018-12-03T10:18:20.285Z,3.19
2018-12-03T10:20:51.515Z,3.02
2018-12-03T10:23:20.197Z,3.20
2018-12-03T10:25:50.695Z,3.42
2018-12-03T10:28:20.460Z,3.39
2018-12-03T10:30:49.775Z,3.67
2018-12-03T10:33:20.313Z,3.78
2018-12-03T10:35:49.500Z,4.09
2018-12-03T10:38:21.434Z,4.13
2018-12-03T10:41:01.925Z,4.22
2018-12-03T10:43:30.616Z,4.22
2018-12-03T10:45:59.623Z,4.41
2018-12-03T10:48:28.318Z,4.52
2018-12-03T10:50:57.047Z,4.93
2018-12-03T10:53:28.497Z,4.85
2018-12-03T10:55:57.246Z,5.45
2018-12-03T10:58:25.890Z,5.04
2018-12-03T11:01:05.418Z,5.21
2018-12-03T11:03:39.278Z,5.35
2018-12-03T11:06:13.146Z,5.65
2018-12-03T11:08:41.896Z,5.89
2018-12-03T11:11:10.608Z,5.98
2018-12-03T11:13:39.375Z,6.15
2018-12-03T11:16:12.051Z,6.19
2018-12-03T11:18:43.089Z,6.37
2018-12-03T11:21:11.746Z,6.53
2018-12-03T11:23:40.548Z,6.54
2018-12-03T11:26:09.239Z,6.32
2018-12-03T11:28:41.114Z,6.51
2018-12-03T11:31:15.012Z,6.38
2018-12-03T11:33:43.675Z,6.85
2018-12-03T11:36:12.397Z,6.53
2018-12-03T11:38:56.852Z,6.27
2018-12-03T11:41:25.587Z,6.20
2018-12-03T11:43:54.266Z,6.09
2018-12-03T11:46:23.011Z,6.01
2018-12-03T11:48:51.689Z,5.91
2018-12-03T11:51:22.371Z,6.06
2018-12-03T11:53:51.129Z,5.95
2018-12-03T11:56:19.805Z,6.27
2018-12-03T11:58:48.449Z,6.17
2018-12-03T12:01:18.191Z,6.43
2018-12-03T12:03:46.891Z,6.51
2018-12-03T12:06:15.663Z,6.52
2018-12-03T12:08:44.637Z,6.39
2018-12-03T12:11:13.325Z,6.17
2018-12-03T12:13:42.093Z,6.23
2018-12-03T12:16:10.778Z,6.11
2018-12-03T12:18:39.483Z,5.84
2018-12-03T12:21:08.193Z,5.60
2018-12-03T12:23:36.896Z,5.40
2018-12-03T12:26:06.458Z,5.52
2018-12-03T12:28:38.249Z,5.70
2018-12-03T12:31:03.889Z,5.81
2018-12-03T12:33:32.558Z,5.69
2018-12-03T12:36:01.264Z,5.96
2018-12-03T12:38:29.921Z,5.88
2018-12-03T12:40:58.611Z,5.70
2018-12-03T12:43:27.255Z,5.82
2018-12-03T12:46:03.806Z,5.60
2018-12-03T12:48:32.456Z,5.75
2018-12-03T12:51:01.257Z,5.85
2018-12-03T12:53:29.931Z,5.68
2018-12-03T12:55:58.611Z,5.63
2018-12-03T12:58:27.290Z,5.50
2018-12-03T13:00:55.951Z,5.31
2018-12-03T13:03:24.616Z,5.18
2018-12-03T13:05:53.318Z,4.89
2018-12-03T13:08:21.949Z,4.54
2018-12-03T13:10:51.138Z,4.23
2018-12-03T13:13:19.822Z,4.03
2018-12-03T13:15:48.458Z,3.89
2018-12-03T13:18:17.082Z,3.87
2018-12-03T13:20:45.783Z,3.66
2018-12-03T13:23:14.476Z,3.70
2018-12-03T13:25:43.165Z,3.54
2018-12-03T13:28:11.856Z,3.62
2018-12-03T13:30:40.578Z,3.48
2018-12-03T13:33:09.297Z,3.59
2018-12-03T13:35:37.981Z,3.59
2018-12-03T13:38:06.781Z,3.79
2018-12-03T13:40:35.518Z,3.76
2018-12-03T13:43:04.330Z,3.75
2018-12-03T13:45:33.011Z,3.88
2018-12-03T13:48:01.796Z,3.81
2018-12-03T13:50:30.479Z,3.84
2018-12-03T13:53:00.433Z,3.67
2018-12-03T13:55:28.023Z,3.66
2018-12-03T13:57:56.715Z,3.75
2018-12-03T14:00:26.689Z,3.59
2018-12-03T14:03:15.619Z,3.46
2018-12-03T14:06:02.809Z,3.30
2018-12-03T14:10:48.632Z,3.06
2018-12-03T14:15:45.245Z,2.69
2018-12-03T14:18:58.348Z,2.44
2018-12-03T14:21:32.209Z,2.25
2018-12-03T14:24:01.446Z,2.16
2018-12-03T14:26:30.142Z,1.93
2018-12-03T14:28:58.815Z,1.75
2018-12-03T14:31:27.495Z,1.68
2018-12-03T14:33:56.181Z,1.68
2018-12-03T14:36:24.973Z,1.56
2018-12-03T14:38:54.677Z,1.66
2018-12-03T14:41:23.386Z,1.57
2018-12-03T14:43:52.130Z,1.57
2018-12-03T14:46:20.795Z,1.39
2018-12-03T14:48:51.132Z,1.37
2018-12-03T14:51:20.869Z,1.26
2018-12-03T14:53:49.482Z,1.25
2018-12-03T14:56:18.156Z,1.16
2018-12-03T14:58:46.847Z,1.17
2018-12-03T15:01:15.573Z,1.08
2018-12-03T15:03:44.288Z,1.03
2018-12-03T15:06:12.980Z,0.94
2018-12-03T15:08:41.655Z,0.94
2018-12-03T15:11:10.489Z,0.94
2018-12-03T15:13:39.121Z,0.90
2018-12-03T15:16:07.856Z,0.95
2018-12-03T15:18:36.546Z,0.82
2018-12-03T15:21:05.231Z,0.88
2018-12-03T15:23:33.896Z,0.88
2018-12-03T15:26:02.596Z,0.85
2018-12-03T20:17:47.747Z,-0.62
2018-12-03T20:20:22.826Z,-0.62
2018-12-03T20:22:59.726Z,-0.51
2018-12-03T20:25:35.781Z,-0.41
2018-12-03T20:28:09.156Z,-0.37
2018-12-03T20:30:55.605Z,-0.39
2018-12-03T20:33:38.425Z,-0.17
2018-12-03T20:36:21.060Z,-0.18
2018-12-03T20:39:09.299Z,-0.12
2018-12-03T20:41:42.535Z,-0.22
2018-12-03T20:44:36.392Z,-0.10
2018-12-03T20:47:37.554Z,-0.14
2018-12-03T20:51:24.219Z,-0.08
2018-12-03T20:53:52.957Z,-0.04
2018-12-03T20:56:21.682Z,-0.04
2018-12-03T20:58:50.423Z,0.07
2018-12-03T21:01:19.120Z,0.10
2018-12-03T21:03:47.850Z,0.06
2018-12-03T21:06:16.509Z,0.10
2018-12-03T21:08:45.161Z,0.07
2018-12-03T21:11:13.845Z,-0.03
2018-12-03T21:13:42.479Z,0.02
2018-12-03T21:16:11.152Z,0.07
2018-12-03T21:18:39.786Z,-0.05
2018-12-03T21:21:10.158Z,-0.02
2018-12-03T21:23:38.859Z,0.05
2018-12-03T21:26:07.553Z,-0.03
2018-12-03T21:28:36.231Z,-0.17
2018-12-03T21:31:04.961Z,-0.08
2018-12-03T21:33:33.638Z,-0.07
2018-12-03T21:36:02.349Z,-0.05
2018-12-03T21:38:31.312Z,-0.13
2018-12-03T21:40:59.993Z,-0.20
2018-12-03T21:43:28.747Z,-0.23
2018-12-03T21:45:57.460Z,-0.17
2018-12-03T21:48:26.101Z,-0.08
2018-12-03T21:50:54.722Z,-0.05
2018-12-03T21:53:23.579Z,-0.07
2018-12-03T21:55:52.290Z,0.02
2018-12-03T21:58:21.951Z,0.01
2018-12-03T22:00:50.624Z,-0.03
2018-12-03T22:03:19.302Z,-0.02
2018-12-03T22:05:47.978Z,0.03
2018-12-03T22:08:17.143Z,-0.10
2018-12-03T22:10:53.027Z,-0.19
2018-12-03T22:13:21.796Z,-0.13
2018-12-03T22:15:50.468Z,-0.27
2018-12-03T22:18:19.180Z,-0.13
2018-12-03T22:20:47.818Z,-0.27
2018-12-03T22:23:16.486Z,-0.24
2018-12-03T22:25:45.183Z,-0.10
2018-12-03T22:28:13.888Z,-0.17
2018-12-03T22:30:42.574Z,-0.19
2018-12-03T22:33:11.250Z,-0.21
2018-12-03T22:35:39.862Z,-0.34
2018-12-03T22:38:08.469Z,-0.15
2018-12-03T22:40:37.143Z,-0.29
2018-12-03T22:43:05.791Z,-0.25
2018-12-03T22:45:34.593Z,-0.19
2018-12-03T22:48:03.311Z,-0.34
2018-12-03T22:50:31.976Z,-0.46
2018-12-03T22:53:00.608Z,-0.43
2018-12-03T22:55:29.378Z,-0.41
2018-12-03T22:57:58.032Z,-0.49
2018-12-03T23:00:32.327Z,-0.46
2018-12-03T23:03:00.970Z,-0.35
2018-12-03T23:05:29.610Z,-0.32
2018-12-03T23:07:58.272Z,-0.20
2018-12-03T23:10:26.979Z,-0.34
2018-12-03T23:12:55.687Z,-0.42
2018-12-03T23:15:24.315Z,-0.34
2018-12-03T23:17:53.062Z,-0.50
2018-12-03T23:20:21.814Z,-0.47
2018-12-03T23:22:51.074Z,-0.44
2018-12-03T23:25:19.783Z,-0.37
2018-12-03T23:27:49.000Z,-0.42
2018-12-03T23:30:17.647Z,-0.48
2018-12-03T23:32:46.286Z,-0.37
2018-12-03T23:35:14.992Z,-0.27
2018-12-03T23:37:43.602Z,-0.41
2018-12-03T23:40:12.279Z,-0.42
2018-12-03T23:42:40.940Z,-0.37
2018-12-03T23:45:09.639Z,-0.35
2018-12-03T23:47:38.301Z,-0.35
2018-12-03T23:50:07.133Z,-0.41
2018-12-03T23:52:35.806Z,-0.32
2018-12-03T23:55:04.727Z,-0.32
2018-12-03T23:57:33.358Z,-0.56
